createdAt,value
2018-07-28T00:00:16.864Z,0
2018-07-28T00:01:16.505Z,0
2018-07-28T00:02:16.747Z,0
2018-07-28T00:03:16.744Z,0
2018-07-28T00:04:17.008Z,0
2018-07-28T00:05:17.006Z,0
2018-07-28T00:06:17.014Z,0
2018-07-28T00:07:16.794Z,0
2018-07-28T00:08:16.769Z,0
2018-07-28T00:09:16.757Z,0
2018-07-28T00:10:17.023Z,0
2018-07-28T00:11:16.778Z,0
2018-07-28T00:12:17.049Z,0
2018-07-28T00:13:17.034Z,0
2018-07-28T00:14:16.784Z,0
2018-07-28T00:15:16.798Z,0
2018-07-28T00:16:17.050Z,0
2018-07-28T00:17:16.550Z,0
2018-07-28T00:18:16.795Z,0
2018-07-28T00:19:17.102Z,0
2018-07-28T00:20:17.065Z,0
2018-07-28T00:21:16.805Z,0
2018-07-28T00:22:17.065Z,0
2018-07-28T00:23:16.560Z,0
2018-07-28T00:24:17.082Z,0
2018-07-28T00:25:16.819Z,0
2018-07-28T00:26:16.848Z,0
2018-07-28T00:27:17.092Z,0
2018-07-28T00:28:16.581Z,0
2018-07-28T00:29:16.829Z,0
2018-07-28T00:30:16.828Z,0
2018-07-28T00:31:17.090Z,0
2018-07-28T00:32:16.853Z,0
2018-07-28T00:33:17.094Z,0
2018-07-28T00:34:17.098Z,0
2018-07-28T00:35:16.875Z,0
2018-07-28T00:36:17.114Z,0
2018-07-28T00:37:17.113Z,0
2018-07-28T00:38:17.099Z,0
2018-07-28T00:39:16.601Z,0
2018-07-28T00:40:17.117Z,0
2018-07-28T00:41:16.870Z,0
2018-07-28T00:42:16.609Z,0
2018-07-28T00:43:17.135Z,0
2018-07-28T00:44:17.129Z,0
2018-07-28T00:45:17.153Z,0
2018-07-28T00:46:16.638Z,0
2018-07-28T00:47:16.638Z,0
2018-07-28T00:48:17.152Z,0
2018-07-28T00:49:17.154Z,0
2018-07-28T00:50:16.911Z,0
2018-07-28T00:51:17.161Z,0
2018-07-28T00:52:16.925Z,0
2018-07-28T00:53:17.185Z,0
2018-07-28T00:54:16.933Z,0
2018-07-28T00:55:16.940Z,0
2018-07-28T00:56:17.183Z,0
2018-07-28T00:57:17.183Z,0
2018-07-28T00:58:17.176Z,0
2018-07-28T00:59:17.174Z,0
2018-07-28T01:00:16.746Z,0
2018-07-28T01:01:16.971Z,0
2018-07-28T01:02:16.940Z,0
2018-07-28T01:03:16.950Z,0
2018-07-28T01:04:16.678Z,0
2018-07-28T01:05:17.197Z,0
2018-07-28T01:06:16.972Z,0
2018-07-28T01:07:16.711Z,0
2018-07-28T01:08:17.208Z,0
2018-07-28T01:09:16.974Z,0
2018-07-28T01:10:16.752Z,0
2018-07-28T01:11:16.715Z,0
2018-07-28T01:12:17.239Z,0
2018-07-28T01:13:17.000Z,0
2018-07-28T01:14:16.732Z,0
2018-07-28T01:15:17.144Z,0
2018-07-28T01:16:17.258Z,0
2018-07-28T01:17:16.737Z,0
2018-07-28T01:18:17.020Z,0
2018-07-28T01:19:16.995Z,0
2018-07-28T01:20:16.664Z,0
2018-07-28T01:21:17.006Z,0
2018-07-28T01:22:17.012Z,0
2018-07-28T01:23:17.037Z,0
2018-07-28T01:24:17.039Z,0
2018-07-28T01:25:17.111Z,0
2018-07-28T01:26:16.758Z,0
2018-07-28T01:27:17.279Z,0
2018-07-28T01:28:17.023Z,0
2018-07-28T01:29:17.021Z,0
2018-07-28T01:30:17.149Z,0
2018-07-28T01:31:17.044Z,0
2018-07-28T01:32:17.056Z,0
2018-07-28T01:33:16.785Z,0
2018-07-28T01:34:17.037Z,0
2018-07-28T01:35:17.469Z,0
2018-07-28T01:36:17.071Z,0
2018-07-28T01:37:17.072Z,0
2018-07-28T01:38:16.541Z,0
2018-07-28T01:39:16.560Z,0
2018-07-28T01:40:16.891Z,0
2018-07-28T01:41:16.839Z,0
2018-07-28T01:42:16.807Z,0
2018-07-28T01:43:16.813Z,0
2018-07-28T01:44:17.074Z,0
2018-07-28T01:45:17.528Z,0
2018-07-28T01:46:16.832Z,0
2018-07-28T01:47:17.349Z,0
2018-07-28T01:48:17.087Z,0
2018-07-28T01:49:17.343Z,0
2018-07-28T01:50:17.210Z,0
2018-07-28T01:51:16.838Z,0
2018-07-28T01:52:16.873Z,0
2018-07-28T01:53:17.115Z,0
2018-07-28T01:54:17.115Z,0
2018-07-28T01:55:17.144Z,0
2018-07-28T01:56:16.862Z,0
2018-07-28T01:57:17.386Z,0
2018-07-28T01:58:17.133Z,0
2018-07-28T01:59:17.125Z,0
2018-07-28T02:00:17.035Z,0
2018-07-28T02:01:16.909Z,0
2018-07-28T02:02:17.135Z,0
2018-07-28T02:03:16.879Z,0
2018-07-28T02:04:17.393Z,0
2018-07-28T02:05:17.290Z,0
2018-07-28T02:06:16.907Z,0
2018-07-28T02:07:17.405Z,0
2018-07-28T02:08:16.913Z,0
2018-07-28T02:09:17.409Z,0
2018-07-28T02:10:17.022Z,0
2018-07-28T02:11:17.149Z,0
2018-07-28T02:12:17.416Z,0
2018-07-28T02:13:17.172Z,0
2018-07-28T02:14:16.932Z,0
2018-07-28T02:15:17.500Z,0
2018-07-28T02:16:17.425Z,0
2018-07-28T02:17:17.165Z,0
2018-07-28T02:18:16.930Z,0
2018-07-28T02:19:17.459Z,0
2018-07-28T02:20:17.508Z,0
2018-07-28T02:21:17.220Z,0
2018-07-28T02:22:16.688Z,0
2018-07-28T02:23:17.189Z,0
2018-07-28T02:24:17.464Z,0
2018-07-28T02:25:17.688Z,0
2018-07-28T02:26:16.979Z,0
2018-07-28T02:27:17.207Z,0
2018-07-28T02:28:17.206Z,0
2018-07-28T02:29:17.492Z,0
2018-07-28T02:30:17.219Z,0
2018-07-28T02:31:16.981Z,0
2018-07-28T02:32:16.726Z,0
2018-07-28T02:33:16.992Z,0
2018-07-28T02:34:17.230Z,0
2018-07-28T02:35:17.338Z,0
2018-07-28T02:36:17.500Z,0
2018-07-28T02:37:17.231Z,0
2018-07-28T02:38:17.248Z,0
2018-07-28T02:39:17.279Z,0
2018-07-28T02:40:17.115Z,0
2018-07-28T02:41:17.238Z,0
2018-07-28T02:42:17.252Z,0
2018-07-28T02:43:17.516Z,0
2018-07-28T02:44:17.545Z,0
2018-07-28T02:45:17.437Z,0
2018-07-28T02:46:16.745Z,0
2018-07-28T02:47:17.518Z,0
2018-07-28T02:48:17.277Z,0
2018-07-28T02:49:17.266Z,0
2018-07-28T02:50:17.489Z,0
2018-07-28T02:51:17.555Z,0
2018-07-28T02:52:17.046Z,0
2018-07-28T02:53:17.574Z,0
2018-07-28T02:54:17.549Z,0
2018-07-28T02:55:17.109Z,0
2018-07-28T02:56:17.294Z,0
2018-07-28T02:57:17.316Z,0
2018-07-28T02:58:17.305Z,0
2018-07-28T02:59:17.297Z,0
2018-07-28T03:00:18.043Z,0
2018-07-28T03:01:17.314Z,0
2018-07-28T03:02:17.311Z,0
2018-07-28T03:03:17.577Z,0
2018-07-28T03:04:17.575Z,0
2018-07-28T03:05:17.123Z,0
2018-07-28T03:06:17.569Z,0
2018-07-28T03:07:17.323Z,0
2018-07-28T03:08:17.343Z,0
2018-07-28T03:09:17.075Z,0
2018-07-28T03:10:17.847Z,4
2018-07-28T03:11:17.578Z,4
2018-07-28T03:12:17.084Z,0
2018-07-28T03:13:17.352Z,0
2018-07-28T03:14:17.348Z,4
2018-07-28T03:15:17.358Z,4
2018-07-28T03:16:17.367Z,0
2018-07-28T03:17:17.613Z,4
2018-07-28T03:18:17.357Z,4
2018-07-28T03:19:17.630Z,4
2018-07-28T03:20:17.355Z,4
2018-07-28T03:21:17.619Z,8
2018-07-28T03:22:17.117Z,8
2018-07-28T03:23:17.384Z,8
2018-07-28T03:24:17.392Z,8
2018-07-28T03:25:17.749Z,12
2018-07-28T03:26:17.413Z,12
2018-07-28T03:27:17.131Z,16
2018-07-28T03:28:17.146Z,16
2018-07-28T03:29:17.630Z,20
2018-07-28T03:30:17.448Z,24
2018-07-28T03:31:17.626Z,28
2018-07-28T03:32:17.714Z,28
2018-07-28T03:33:17.184Z,32
2018-07-28T03:34:17.413Z,36
2018-07-28T03:35:17.580Z,40
2018-07-28T03:36:17.389Z,48
2018-07-28T03:37:17.664Z,56
2018-07-28T03:38:17.154Z,60
2018-07-28T03:39:17.428Z,68
2018-07-28T03:40:17.228Z,76
2018-07-28T03:41:17.425Z,84
2018-07-28T03:42:17.421Z,96
2018-07-28T03:43:17.431Z,108
2018-07-28T03:44:17.165Z,120
2018-07-28T03:45:17.432Z,132
2018-07-28T03:46:17.671Z,148
2018-07-28T03:47:17.173Z,164
2018-07-28T03:48:17.692Z,180
2018-07-28T03:49:17.868Z,196
2018-07-28T03:50:17.852Z,216
2018-07-28T03:51:17.186Z,232
2018-07-28T03:52:17.432Z,256
2018-07-28T03:53:17.240Z,276
2018-07-28T03:54:17.245Z,296
2018-07-28T03:55:17.456Z,316
2018-07-28T03:56:17.431Z,336
2018-07-28T03:57:17.454Z,360
2018-07-28T03:58:17.735Z,380
2018-07-28T03:59:17.462Z,408
2018-07-28T04:00:17.627Z,432
2018-07-28T04:01:17.206Z,456
2018-07-28T04:02:17.451Z,484
2018-07-28T04:03:17.540Z,512
2018-07-28T04:04:18.169Z,540
2018-07-28T04:05:17.295Z,572
2018-07-28T04:06:17.497Z,608
2018-07-28T04:07:17.482Z,644
2018-07-28T04:08:17.496Z,684
2018-07-28T04:09:17.511Z,724
2018-07-28T04:10:17.221Z,764
2018-07-28T04:11:17.743Z,808
2018-07-28T04:12:17.480Z,852
2018-07-28T04:13:17.236Z,900
2018-07-28T04:14:17.791Z,948
2018-07-28T04:15:17.400Z,996
2018-07-28T04:16:17.744Z,1048
2018-07-28T04:17:17.491Z,1104
2018-07-28T04:18:17.762Z,1164
2018-07-28T04:19:17.245Z,1220
2018-07-28T04:20:17.770Z,1276
2018-07-28T04:21:17.513Z,1336
2018-07-28T04:22:17.506Z,1392
2018-07-28T04:23:17.003Z,1456
2018-07-28T04:24:17.008Z,1516
2018-07-28T04:25:17.657Z,1584
2018-07-28T04:26:17.541Z,1656
2018-07-28T04:27:17.537Z,1756
2018-07-28T04:28:17.526Z,1924
2018-07-28T04:29:17.293Z,2144
2018-07-28T04:30:17.298Z,2288
2018-07-28T04:31:17.270Z,2440
2018-07-28T04:32:17.291Z,2556
2018-07-28T04:33:17.029Z,2644
2018-07-28T04:34:17.802Z,2772
2018-07-28T04:35:17.880Z,3044
2018-07-28T04:36:17.534Z,3248
2018-07-28T04:37:17.746Z,3452
2018-07-28T04:38:17.586Z,3692
2018-07-28T04:39:17.598Z,3888
2018-07-28T04:40:18.025Z,4108
2018-07-28T04:41:17.580Z,4364
2018-07-28T04:42:17.816Z,4652
2018-07-28T04:43:17.845Z,4920
2018-07-28T04:44:17.585Z,5104
2018-07-28T04:45:17.413Z,5380
2018-07-28T04:46:17.082Z,5624
2018-07-28T04:47:17.333Z,5756
2018-07-28T04:48:17.596Z,5872
2018-07-28T04:49:17.867Z,6064
2018-07-28T04:50:17.420Z,6284
2018-07-28T04:51:17.606Z,6460
2018-07-28T04:52:17.111Z,6552
2018-07-28T04:53:17.889Z,6644
2018-07-28T04:54:17.364Z,6788
2018-07-28T04:55:17.330Z,7000
2018-07-28T04:56:17.643Z,7192
2018-07-28T04:57:17.379Z,7272
2018-07-28T04:58:17.390Z,7256
2018-07-28T04:59:17.647Z,7288
2018-07-28T05:00:17.905Z,7372
2018-07-28T05:01:17.924Z,7472
2018-07-28T05:02:17.157Z,7544
2018-07-28T05:03:17.400Z,7660
2018-07-28T05:04:17.671Z,7824
2018-07-28T05:05:17.332Z,7968
2018-07-28T05:06:17.445Z,8384
2018-07-28T05:07:17.865Z,8628
2018-07-28T05:08:17.691Z,8644
2018-07-28T05:09:18.026Z,8864
2018-07-28T05:10:18.188Z,9256
2018-07-28T05:11:17.485Z,9628
2018-07-28T05:12:18.038Z,9756
2018-07-28T05:13:17.795Z,9856
2018-07-28T05:14:17.996Z,9924
2018-07-28T05:15:17.996Z,10012
2018-07-28T05:16:17.493Z,10056
2018-07-28T05:17:17.765Z,10112
2018-07-28T05:18:17.494Z,10140
2018-07-28T05:19:17.779Z,10112
2018-07-28T05:20:17.267Z,10192
2018-07-28T05:21:17.268Z,10236
2018-07-28T05:22:17.529Z,10228
2018-07-28T05:23:17.534Z,10264
2018-07-28T05:24:17.813Z,10236
2018-07-28T05:25:17.808Z,10324
2018-07-28T05:26:17.542Z,10392
2018-07-28T05:27:17.579Z,10540
2018-07-28T05:28:17.816Z,10768
2018-07-28T05:29:17.311Z,10968
2018-07-28T05:30:17.926Z,11120
2018-07-28T05:31:18.096Z,11128
2018-07-28T05:32:17.902Z,11168
2018-07-28T05:33:17.855Z,11148
2018-07-28T05:34:17.887Z,11104
2018-07-28T05:35:18.007Z,10964
2018-07-28T05:36:18.165Z,10160
2018-07-28T05:37:18.600Z,9676
2018-07-28T05:38:17.887Z,7880
2018-07-28T05:39:17.897Z,4948
2018-07-28T05:40:18.334Z,4700
2018-07-28T05:41:17.392Z,4960
2018-07-28T05:42:17.396Z,4468
2018-07-28T05:43:18.182Z,4548
2018-07-28T05:44:17.930Z,4684
2018-07-28T05:45:17.708Z,5312
2018-07-28T05:46:17.690Z,5656
2018-07-28T05:47:18.198Z,5472
2018-07-28T05:48:17.955Z,5200
2018-07-28T05:49:18.222Z,6080
2018-07-28T05:50:18.227Z,7328
2018-07-28T05:51:17.984Z,8464
2018-07-28T05:52:17.471Z,8852
2018-07-28T05:53:17.734Z,9732
2018-07-28T05:54:17.989Z,11580
2018-07-28T05:55:17.993Z,12460
2018-07-28T05:56:18.000Z,12764
2018-07-28T05:57:17.756Z,12816
2018-07-28T05:58:17.765Z,12992
2018-07-28T05:59:18.037Z,13124
2018-07-28T06:00:18.045Z,13176
2018-07-28T06:01:18.288Z,13212
2018-07-28T06:02:18.244Z,13168
2018-07-28T06:03:17.792Z,13168
2018-07-28T06:04:17.794Z,13128
2018-07-28T06:05:17.815Z,13120
2018-07-28T06:06:18.086Z,13120
2018-07-28T06:07:18.339Z,13144
2018-07-28T06:08:17.578Z,13224
2018-07-28T06:09:17.846Z,13276
2018-07-28T06:10:17.852Z,13336
2018-07-28T06:11:18.104Z,13436
2018-07-28T06:12:17.887Z,13564
2018-07-28T06:13:18.380Z,13648
2018-07-28T06:14:18.442Z,13680
2018-07-28T06:15:18.156Z,13776
2018-07-28T06:16:18.414Z,13820
2018-07-28T06:17:17.885Z,13876
2018-07-28T06:18:18.414Z,13944
2018-07-28T06:19:17.957Z,14008
2018-07-28T06:20:18.250Z,14056
2018-07-28T06:21:18.430Z,14132
2018-07-28T06:22:18.439Z,14296
2018-07-28T06:23:18.218Z,14388
2018-07-28T06:24:18.489Z,14464
2018-07-28T06:25:18.470Z,14628
2018-07-28T06:26:18.474Z,14848
2018-07-28T06:27:17.708Z,14988
2018-07-28T06:28:18.252Z,15196
2018-07-28T06:29:18.278Z,15552
2018-07-28T06:30:17.988Z,15712
2018-07-28T06:31:18.258Z,14924
2018-07-28T06:32:18.536Z,10840
2018-07-28T06:33:18.291Z,12380
2018-07-28T06:34:18.072Z,15712
2018-07-28T06:35:18.298Z,16448
2018-07-28T06:36:17.781Z,16928
2018-07-28T06:37:18.585Z,17600
2018-07-28T06:38:18.620Z,11236
2018-07-28T06:39:18.064Z,14948
2018-07-28T06:40:18.087Z,14352
2018-07-28T06:41:18.347Z,11188
2018-07-28T06:42:18.602Z,12320
2018-07-28T06:43:18.349Z,14672
2018-07-28T06:44:18.645Z,15680
2018-07-28T06:45:18.628Z,14812
2018-07-28T06:46:17.877Z,13124
2018-07-28T06:47:17.891Z,13808
2018-07-28T06:48:18.145Z,12556
2018-07-28T06:49:18.422Z,18656
2018-07-28T06:50:18.411Z,18560
2018-07-28T06:51:18.421Z,17696
2018-07-28T06:52:17.935Z,15120
2018-07-28T06:53:18.718Z,17408
2018-07-28T06:54:17.946Z,18784
2018-07-28T06:55:18.452Z,18848
2018-07-28T06:56:18.462Z,18720
2018-07-28T06:57:18.463Z,18464
2018-07-28T06:58:18.746Z,18304
2018-07-28T06:59:18.493Z,12672
2018-07-28T07:00:17.996Z,10272
2018-07-28T07:01:18.765Z,9844
2018-07-28T07:02:18.514Z,9440
2018-07-28T07:03:18.511Z,8492
2018-07-28T07:04:18.010Z,7800
2018-07-28T07:05:18.541Z,7220
2018-07-28T07:06:18.551Z,6724
2018-07-28T07:07:18.828Z,6296
2018-07-28T07:08:18.866Z,5932
2018-07-28T07:09:18.320Z,5640
2018-07-28T07:10:18.840Z,5436
2018-07-28T07:11:18.084Z,5360
2018-07-28T07:12:18.600Z,5400
2018-07-28T07:13:18.602Z,5556
2018-07-28T07:14:18.610Z,5784
2018-07-28T07:15:18.910Z,6024
2018-07-28T07:16:18.638Z,6224
2018-07-28T07:17:18.642Z,6384
2018-07-28T07:18:18.915Z,6460
2018-07-28T07:19:18.656Z,6456
2018-07-28T07:20:18.677Z,6436
2018-07-28T07:21:18.147Z,6388
2018-07-28T07:22:18.423Z,6376
2018-07-28T07:23:18.672Z,6432
2018-07-28T07:24:18.943Z,6512
2018-07-28T07:25:18.940Z,6676
2018-07-28T07:26:18.944Z,6856
2018-07-28T07:27:18.970Z,7068
2018-07-28T07:28:18.965Z,7236
2018-07-28T07:29:18.469Z,7404
2018-07-28T07:30:18.741Z,7560
2018-07-28T07:31:18.473Z,7672
2018-07-28T07:32:18.484Z,7784
2018-07-28T07:33:18.760Z,7872
2018-07-28T07:34:19.006Z,7932
2018-07-28T07:35:19.022Z,7924
2018-07-28T07:36:18.914Z,7896
2018-07-28T07:37:19.018Z,7860
2018-07-28T07:38:19.024Z,7912
2018-07-28T07:39:19.041Z,7892
2018-07-28T07:40:18.785Z,7976
2018-07-28T07:41:18.784Z,8204
2018-07-28T07:42:19.049Z,8296
2018-07-28T07:43:19.054Z,8468
2018-07-28T07:44:18.807Z,8568
2018-07-28T07:45:19.067Z,8688
2018-07-28T07:46:19.073Z,8808
2018-07-28T07:47:19.456Z,8948
2018-07-28T07:48:18.841Z,9148
2018-07-28T07:49:19.389Z,9436
2018-07-28T07:50:18.842Z,9736
2018-07-28T07:51:19.106Z,9776
2018-07-28T07:52:19.110Z,9484
2018-07-28T07:53:18.599Z,9044
2018-07-28T07:54:18.857Z,8496
2018-07-28T07:55:19.170Z,7856
2018-07-28T07:56:19.137Z,7060
2018-07-28T07:57:18.872Z,6424
2018-07-28T07:58:18.874Z,5880
2018-07-28T07:59:18.893Z,5416
2018-07-28T08:00:18.644Z,5012
2018-07-28T08:01:18.924Z,4760
2018-07-28T08:02:19.161Z,4444
2018-07-28T08:03:19.201Z,4228
2018-07-28T08:04:20.785Z,4028
2018-07-28T08:05:19.179Z,3844
2018-07-28T08:06:19.279Z,3672
2018-07-28T08:07:19.190Z,3504
2018-07-28T08:08:19.204Z,3368
2018-07-28T08:09:19.197Z,3264
2018-07-28T08:10:19.214Z,3184
2018-07-28T08:11:18.952Z,3152
2018-07-28T08:12:18.966Z,3152
2018-07-28T08:13:18.491Z,3160
2018-07-28T08:14:19.259Z,3156
2018-07-28T08:15:18.990Z,3156
2018-07-28T08:16:18.993Z,3104
2018-07-28T08:17:19.260Z,3048
2018-07-28T08:18:19.262Z,2988
2018-07-28T08:19:19.262Z,2980
2018-07-28T08:20:18.771Z,2916
2018-07-28T08:21:19.268Z,2916
2018-07-28T08:22:19.038Z,2884
2018-07-28T08:23:19.029Z,2812
2018-07-28T08:24:19.305Z,2676
2018-07-28T08:25:19.037Z,2632
2018-07-28T08:26:18.818Z,2620
2018-07-28T08:27:19.060Z,2632
2018-07-28T08:28:18.538Z,2704
2018-07-28T08:29:19.321Z,2832
2018-07-28T08:30:19.054Z,3036
2018-07-28T08:31:19.332Z,3272
2018-07-28T08:32:19.352Z,3496
2018-07-28T08:33:19.419Z,3736
2018-07-28T08:34:18.566Z,4056
2018-07-28T08:35:18.821Z,4460
2018-07-28T08:36:19.102Z,4900
2018-07-28T08:37:18.842Z,5320
2018-07-28T08:38:19.378Z,5688
2018-07-28T08:39:19.104Z,5944
2018-07-28T08:40:19.392Z,6008
2018-07-28T08:41:19.135Z,5972
2018-07-28T08:42:18.870Z,5988
2018-07-28T08:43:19.384Z,6200
2018-07-28T08:44:19.140Z,6576
2018-07-28T08:45:19.127Z,7024
2018-07-28T08:46:19.145Z,7476
2018-07-28T08:47:19.407Z,7856
2018-07-28T08:48:19.412Z,8248
2018-07-28T08:49:20.056Z,8720
2018-07-28T08:50:19.421Z,9200
2018-07-28T08:51:18.905Z,9612
2018-07-28T08:52:19.439Z,9908
2018-07-28T08:53:19.408Z,10032
2018-07-28T08:54:19.184Z,10196
2018-07-28T08:55:18.924Z,10268
2018-07-28T08:56:19.445Z,10392
2018-07-28T08:57:18.945Z,10416
2018-07-28T08:58:19.464Z,10652
2018-07-28T08:59:19.230Z,10552
2018-07-28T09:00:18.954Z,10364
2018-07-28T09:01:19.470Z,10280
2018-07-28T09:02:19.212Z,10332
2018-07-28T09:03:19.230Z,10520
2018-07-28T09:04:21.085Z,10484
2018-07-28T09:05:19.227Z,10556
2018-07-28T09:06:19.351Z,10456
2018-07-28T09:07:19.250Z,10352
2018-07-28T09:08:19.245Z,10276
2018-07-28T09:09:19.252Z,10160
2018-07-28T09:10:19.263Z,9960
2018-07-28T09:11:19.539Z,9776
2018-07-28T09:12:19.105Z,9656
2018-07-28T09:13:19.020Z,9584
2018-07-28T09:14:19.535Z,9540
2018-07-28T09:15:19.302Z,9468
2018-07-28T09:16:19.564Z,9448
2018-07-28T09:17:19.300Z,9568
2018-07-28T09:18:19.304Z,9924
2018-07-28T09:19:19.574Z,10384
2018-07-28T09:20:19.311Z,11196
2018-07-28T09:21:19.339Z,11800
2018-07-28T09:22:19.112Z,12804
2018-07-28T09:23:19.932Z,13848
2018-07-28T09:24:19.390Z,14576
2018-07-28T09:25:18.824Z,13996
2018-07-28T09:26:19.613Z,14160
2018-07-28T09:27:19.350Z,15276
2018-07-28T09:28:19.359Z,15280
2018-07-28T09:29:19.116Z,17056
2018-07-28T09:30:19.946Z,17504
2018-07-28T09:31:19.385Z,15412
2018-07-28T09:32:19.388Z,15628
2018-07-28T09:33:19.400Z,14292
2018-07-28T09:34:18.872Z,14492
2018-07-28T09:35:19.403Z,14256
2018-07-28T09:36:19.426Z,14336
2018-07-28T09:37:19.429Z,14520
2018-07-28T09:38:19.730Z,14912
2018-07-28T09:39:19.462Z,14648
2018-07-28T09:40:19.212Z,14436
2018-07-28T09:41:19.219Z,14044
2018-07-28T09:42:19.443Z,13544
2018-07-28T09:43:19.189Z,12900
2018-07-28T09:44:19.454Z,12424
2018-07-28T09:45:19.218Z,11960
2018-07-28T09:46:19.545Z,11548
2018-07-28T09:47:19.229Z,11236
2018-07-28T09:48:19.492Z,11020
2018-07-28T09:49:19.753Z,11012
2018-07-28T09:50:19.491Z,11172
2018-07-28T09:51:19.254Z,11204
2018-07-28T09:52:19.507Z,11192
2018-07-28T09:53:19.777Z,11188
2018-07-28T09:54:19.806Z,11156
2018-07-28T09:55:19.835Z,11128
2018-07-28T09:56:19.989Z,10944
2018-07-28T09:57:19.542Z,10848
2018-07-28T09:58:19.556Z,10768
2018-07-28T09:59:19.573Z,10784
2018-07-28T10:00:19.552Z,10804
2018-07-28T10:01:19.811Z,10880
2018-07-28T10:02:19.801Z,11024
2018-07-28T10:03:19.877Z,11352
2018-07-28T10:04:19.052Z,11856
2018-07-28T10:05:20.681Z,12560
2018-07-28T10:06:19.836Z,13392
2018-07-28T10:07:19.364Z,14252
2018-07-28T10:08:19.649Z,15224
2018-07-28T10:09:19.641Z,15556
2018-07-28T10:10:19.610Z,16384
2018-07-28T10:11:19.121Z,15200
2018-07-28T10:12:19.370Z,15604
2018-07-28T10:13:19.374Z,15292
2018-07-28T10:14:19.635Z,14312
2018-07-28T10:15:20.218Z,13464
2018-07-28T10:16:20.200Z,12972
2018-07-28T10:17:19.910Z,12352
2018-07-28T10:18:19.679Z,11864
2018-07-28T10:19:19.667Z,11496
2018-07-28T10:20:19.937Z,11340
2018-07-28T10:21:19.457Z,11324
2018-07-28T10:22:19.681Z,11424
2018-07-28T10:23:19.707Z,11580
2018-07-28T10:24:19.715Z,11760
2018-07-28T10:25:19.716Z,11984
2018-07-28T10:26:19.214Z,12308
2018-07-28T10:27:19.759Z,13452
2018-07-28T10:28:19.722Z,14420
2018-07-28T10:29:20.025Z,14372
2018-07-28T10:30:20.106Z,14600
2018-07-28T10:31:19.772Z,13668
2018-07-28T10:32:19.869Z,13196
2018-07-28T10:33:19.769Z,12968
2018-07-28T10:34:20.019Z,12860
2018-07-28T10:35:20.569Z,12984
2018-07-28T10:36:20.128Z,13256
2018-07-28T10:37:20.029Z,13744
2018-07-28T10:38:19.527Z,13616
2018-07-28T10:39:19.804Z,13628
2018-07-28T10:40:19.823Z,14236
2018-07-28T10:41:19.864Z,14252
2018-07-28T10:42:19.813Z,15028
2018-07-28T10:43:20.079Z,13852
2018-07-28T10:44:19.817Z,13392
2018-07-28T10:45:19.580Z,13172
2018-07-28T10:46:19.592Z,13024
2018-07-28T10:47:19.696Z,13040
2018-07-28T10:48:20.141Z,13036
2018-07-28T10:49:20.135Z,13108
2018-07-28T10:50:19.652Z,13180
2018-07-28T10:51:20.128Z,13436
2018-07-28T10:52:20.141Z,13988
2018-07-28T10:53:19.906Z,14044
2018-07-28T10:54:19.897Z,14100
2018-07-28T10:55:20.156Z,14172
2018-07-28T10:56:20.166Z,14080
2018-07-28T10:57:20.189Z,14008
2018-07-28T10:58:20.037Z,13800
2018-07-28T10:59:20.187Z,13696
2018-07-28T11:00:20.164Z,13636
2018-07-28T11:01:19.997Z,13644
2018-07-28T11:02:19.969Z,13676
2018-07-28T11:03:19.972Z,13552
2018-07-28T11:04:19.708Z,13668
2018-07-28T11:05:20.776Z,13364
2018-07-28T11:06:19.750Z,13196
2018-07-28T11:07:20.006Z,12948
2018-07-28T11:08:19.743Z,13168
2018-07-28T11:09:19.966Z,13144
2018-07-28T11:10:20.017Z,12960
2018-07-28T11:11:20.272Z,12784
2018-07-28T11:12:20.034Z,13052
2018-07-28T11:13:20.081Z,13816
2018-07-28T11:14:19.772Z,12748
2018-07-28T11:15:20.039Z,11012
2018-07-28T11:16:20.042Z,10584
2018-07-28T11:17:20.078Z,10660
2018-07-28T11:18:19.817Z,10536
2018-07-28T11:19:20.324Z,10000
2018-07-28T11:20:20.334Z,10376
2018-07-28T11:21:20.094Z,10896
2018-07-28T11:22:20.361Z,12396
2018-07-28T11:23:19.860Z,13668
2018-07-28T11:24:20.123Z,14456
2018-07-28T11:25:20.118Z,15664
2018-07-28T11:26:20.403Z,15168
2018-07-28T11:27:20.135Z,14316
2018-07-28T11:28:20.399Z,14628
2018-07-28T11:29:20.139Z,15388
2018-07-28T11:30:19.662Z,13868
2018-07-28T11:31:20.164Z,14456
2018-07-28T11:32:20.427Z,14336
2018-07-28T11:33:20.563Z,13788
2018-07-28T11:34:20.428Z,13708
2018-07-28T11:35:19.985Z,13604
2018-07-28T11:36:20.449Z,13372
2018-07-28T11:37:20.207Z,13452
2018-07-28T11:38:19.934Z,13148
2018-07-28T11:39:20.457Z,13440
2018-07-28T11:40:20.209Z,14072
2018-07-28T11:41:20.480Z,16960
2018-07-28T11:42:20.218Z,14668
2018-07-28T11:43:20.509Z,14552
2018-07-28T11:44:20.262Z,16160
2018-07-28T11:45:20.087Z,14120
2018-07-28T11:46:20.031Z,13340
2018-07-28T11:47:20.277Z,13920
2018-07-28T11:48:20.284Z,12776
2018-07-28T11:49:20.300Z,13316
2018-07-28T11:50:20.291Z,12812
2018-07-28T11:51:20.459Z,12452
2018-07-28T11:52:20.293Z,13104
2018-07-28T11:53:20.340Z,13584
2018-07-28T11:54:19.840Z,11792
2018-07-28T11:55:20.581Z,11652
2018-07-28T11:56:20.591Z,11452
2018-07-28T11:57:20.381Z,11244
2018-07-28T11:58:19.856Z,11380
2018-07-28T11:59:20.363Z,11548
2018-07-28T12:00:20.644Z,11868
2018-07-28T12:01:20.370Z,12588
2018-07-28T12:02:20.103Z,12512
2018-07-28T12:03:20.142Z,12536
2018-07-28T12:04:20.156Z,12696
2018-07-28T12:05:20.410Z,13240
2018-07-28T12:06:20.404Z,12780
2018-07-28T12:07:19.923Z,13008
2018-07-28T12:08:20.176Z,13248
2018-07-28T12:09:20.711Z,13320
2018-07-28T12:10:20.183Z,12952
2018-07-28T12:11:20.491Z,13124
2018-07-28T12:12:20.195Z,12604
2018-07-28T12:13:20.457Z,12860
2018-07-28T12:14:20.736Z,12940
2018-07-28T12:15:20.226Z,13128
2018-07-28T12:16:20.479Z,13176
2018-07-28T12:17:20.758Z,13032
2018-07-28T12:18:20.761Z,13140
2018-07-28T12:19:20.530Z,13000
2018-07-28T12:20:20.545Z,13292
2018-07-28T12:21:20.847Z,13396
2018-07-28T12:22:20.808Z,13348
2018-07-28T12:23:20.288Z,13260
2018-07-28T12:24:20.287Z,13188
2018-07-28T12:25:20.558Z,13292
2018-07-28T12:26:20.596Z,12972
2018-07-28T12:27:20.604Z,13564
2018-07-28T12:28:20.860Z,13648
2018-07-28T12:29:20.621Z,11952
2018-07-28T12:30:20.593Z,11856
2018-07-28T12:31:20.870Z,13164
2018-07-28T12:32:20.354Z,12788
2018-07-28T12:33:20.360Z,11960
2018-07-28T12:34:20.395Z,9632
2018-07-28T12:35:20.122Z,8764
2018-07-28T12:36:20.921Z,8288
2018-07-28T12:37:20.654Z,8072
2018-07-28T12:38:20.928Z,7980
2018-07-28T12:39:20.663Z,7928
2018-07-28T12:40:20.921Z,7308
2018-07-28T12:41:20.431Z,6584
2018-07-28T12:42:20.688Z,5796
2018-07-28T12:43:20.438Z,4940
2018-07-28T12:44:20.705Z,4248
2018-07-28T12:45:20.711Z,3788
2018-07-28T12:46:20.486Z,3488
2018-07-28T12:47:20.509Z,3268
2018-07-28T12:48:20.743Z,3096
2018-07-28T12:49:20.542Z,2952
2018-07-28T12:50:20.498Z,2800
2018-07-28T12:51:20.747Z,2588
2018-07-28T12:52:20.758Z,2344
2018-07-28T12:53:20.769Z,2064
2018-07-28T12:54:21.044Z,1836
2018-07-28T12:55:21.425Z,1716
2018-07-28T12:56:20.711Z,1696
2018-07-28T12:57:20.539Z,1772
2018-07-28T12:58:20.819Z,1936
2018-07-28T12:59:21.085Z,2196
2018-07-28T13:00:20.823Z,2932
2018-07-28T13:01:20.572Z,2960
2018-07-28T13:02:21.192Z,3332
2018-07-28T13:03:20.348Z,3412
2018-07-28T13:04:20.851Z,3456
2018-07-28T13:05:21.257Z,3568
2018-07-28T13:06:21.921Z,3956
2018-07-28T13:07:20.885Z,4668
2018-07-28T13:08:20.918Z,5104
2018-07-28T13:09:20.847Z,5584
2018-07-28T13:10:21.456Z,8296
2018-07-28T13:11:21.157Z,7648
2018-07-28T13:12:20.932Z,9668
2018-07-28T13:13:20.936Z,8488
2018-07-28T13:14:21.186Z,9904
2018-07-28T13:15:21.224Z,9796
2018-07-28T13:16:20.654Z,9340
2018-07-28T13:17:20.943Z,9412
2018-07-28T13:18:20.934Z,9112
2018-07-28T13:19:20.966Z,9268
2018-07-28T13:20:21.197Z,9668
2018-07-28T13:21:21.219Z,10488
2018-07-28T13:22:20.961Z,11060
2018-07-28T13:23:20.704Z,11384
2018-07-28T13:24:21.217Z,12148
2018-07-28T13:25:20.708Z,12092
2018-07-28T13:26:20.978Z,12412
2018-07-28T13:27:21.236Z,11944
2018-07-28T13:28:20.724Z,12736
2018-07-28T13:29:20.735Z,12920
2018-07-28T13:30:20.993Z,13044